createdAt,value
2018-12-06T00:01:14.999Z,459.98
2018-12-06T00:04:16.589Z,461.08
2018-12-06T00:07:52.099Z,466.68
2018-12-06T00:10:09.873Z,460.00
2018-12-06T00:13:28.404Z,466.38
2018-12-06T00:19:54.017Z,451.27
2018-12-06T00:22:42.117Z,452.15
2018-12-06T00:25:24.055Z,457.40
2018-12-06T00:28:16.260Z,451.80
2018-12-06T00:30:58.562Z,455.85
2018-12-06T00:33:47.262Z,458.32
2018-12-06T00:36:28.790Z,467.87
2018-12-06T00:39:16.993Z,481.60
2018-12-06T00:41:58.989Z,490.05
2018-12-06T00:44:47.155Z,492.10
2018-12-06T00:47:28.911Z,501.02
2018-12-06T00:50:18.294Z,505.35
2018-12-06T00:52:59.582Z,514.10
2018-12-06T00:55:47.840Z,502.05
2018-12-06T00:58:31.065Z,512.60
2018-12-06T01:04:22.345Z,515.08
2018-12-06T01:07:10.477Z,506.57
2018-12-06T01:09:58.623Z,516.52
2018-12-06T01:12:39.989Z,512.12
2018-12-06T01:15:21.812Z,501.47
2018-12-06T01:18:35.428Z,506.67
2018-12-06T01:21:17.310Z,511.90
2018-12-06T01:24:05.378Z,511.70
2018-12-06T01:26:58.498Z,513.92
2018-12-06T01:29:40.441Z,514.75
2018-12-06T01:32:28.586Z,503.55
2018-12-06T01:35:10.623Z,505.13
2018-12-06T01:38:20.617Z,508.62
2018-12-06T01:41:02.324Z,500.68
2018-12-06T01:43:50.454Z,498.67
2018-12-06T01:46:31.869Z,499.58
2018-12-06T01:49:20.049Z,486.38
2018-12-06T01:52:03.633Z,488.57
2018-12-06T01:54:51.710Z,490.70
2018-12-06T01:57:33.601Z,484.25
2018-12-06T02:00:39.755Z,480.45
2018-12-06T02:03:22.610Z,477.20
2018-12-06T02:06:04.482Z,474.10
2018-12-06T02:08:53.052Z,479.10
2018-12-06T02:11:34.826Z,476.37
2018-12-06T02:14:22.956Z,484.55
2018-12-06T02:17:06.634Z,492.50
2018-12-06T02:20:12.987Z,492.27
2018-12-06T02:26:46.978Z,493.05
2018-12-06T02:29:37.042Z,498.55
2018-12-06T02:32:45.327Z,496.35
2018-12-06T02:35:58.938Z,496.72
2018-12-06T02:38:43.211Z,497.10
2018-12-06T02:41:45.296Z,488.75
2018-12-06T02:44:38.654Z,496.42
2018-12-06T02:47:53.287Z,496.70
2018-12-06T02:50:35.071Z,495.25
2018-12-06T02:53:24.862Z,504.07
2018-12-06T02:59:36.614Z,508.50
2018-12-06T03:02:20.016Z,515.35
2018-12-06T03:05:08.645Z,512.95
2018-12-06T03:07:58.130Z,507.98
2018-12-06T03:10:51.430Z,509.40
2018-12-06T03:13:39.533Z,503.85
2018-12-06T03:16:54.665Z,503.65
2018-12-06T03:19:35.562Z,504.70
2018-12-06T03:22:17.723Z,504.65
2018-12-06T03:25:20.094Z,499.65
2018-12-06T03:28:11.419Z,506.73
2018-12-06T03:30:39.896Z,511.52
2018-12-06T03:33:28.245Z,514.92
2018-12-06T03:40:26.056Z,562.23
2018-12-06T03:43:08.474Z,560.02
2018-12-06T03:45:56.684Z,565.58
2018-12-06T03:48:45.100Z,573.42
2018-12-06T03:51:26.641Z,583.35
2018-12-06T03:54:34.033Z,583.48
2018-12-06T03:57:15.389Z,570.35
2018-12-06T04:04:12.174Z,561.17
2018-12-06T04:13:55.780Z,554.87
2018-12-06T04:16:25.380Z,544.30
2018-12-06T04:18:54.849Z,541.08
2018-12-06T04:26:19.240Z,550.15
2018-12-06T04:36:48.764Z,567.17
2018-12-06T04:43:17.932Z,572.83
2018-12-06T04:49:47.016Z,566.57
2018-12-06T04:56:17.090Z,552.13
2018-12-06T05:02:47.273Z,558.42
2018-12-06T05:09:16.956Z,559.55
2018-12-06T05:15:46.860Z,561.08
2018-12-06T05:22:16.557Z,585.45
2018-12-06T05:28:45.965Z,579.95
2018-12-06T05:32:11.198Z,575.10
2018-12-06T05:39:00.106Z,579.23
2018-12-06T05:52:19.506Z,581.25
2018-12-06T06:02:47.669Z,594.55
2018-12-06T06:05:22.642Z,590.70
2018-12-06T06:08:10.783Z,597.92
2018-12-06T06:11:26.071Z,586.67
2018-12-06T06:14:17.419Z,579.90
2018-12-06T06:17:02.790Z,586.23
2018-12-06T06:23:50.414Z,607.62
2018-12-06T06:26:38.616Z,596.87
2018-12-06T06:29:35.373Z,595.95
2018-12-06T06:32:21.725Z,594.30
2018-12-06T06:35:17.144Z,602.62
2018-12-06T06:38:15.031Z,598.23
2018-12-06T06:40:57.836Z,601.17
2018-12-06T06:46:45.253Z,608.40
2018-12-06T06:49:33.467Z,605.05
2018-12-06T06:52:21.597Z,603.92
2018-12-06T06:54:49.992Z,612.12
2018-12-06T06:57:38.314Z,613.65
2018-12-06T07:00:26.464Z,605.67
2018-12-06T07:03:19.870Z,615.80
2018-12-06T07:06:07.930Z,613.92
2018-12-06T07:08:36.503Z,626.50
2018-12-06T07:11:24.723Z,628.12
2018-12-06T07:14:06.175Z,626.08
2018-12-06T07:16:56.393Z,624.30
2018-12-06T07:19:38.580Z,625.75
2018-12-06T07:22:52.854Z,630.03
2018-12-06T07:25:35.265Z,622.13
2018-12-06T07:28:23.300Z,633.15
2018-12-06T07:31:05.377Z,619.30
2018-12-06T07:33:53.425Z,631.52
2018-12-06T07:36:46.600Z,623.23
2018-12-06T07:40:02.282Z,621.90
2018-12-06T07:42:44.604Z,621.60
2018-12-06T07:45:13.591Z,625.83
2018-12-06T07:48:18.665Z,639.63
2018-12-06T07:51:00.420Z,646.10
2018-12-06T07:53:48.689Z,631.08
2018-12-06T07:56:17.339Z,626.98
2018-12-06T07:59:05.482Z,636.23
2018-12-06T08:02:27.665Z,637.62
2018-12-06T08:05:15.868Z,640.75
2018-12-06T08:07:57.674Z,647.10
2018-12-06T08:10:45.781Z,646.30
2018-12-06T08:13:27.506Z,656.85
2018-12-06T08:16:15.630Z,654.70
2018-12-06T08:18:57.527Z,650.50
2018-12-06T08:21:48.318Z,664.73
2018-12-06T08:24:30.702Z,669.73
2018-12-06T08:27:19.024Z,673.45
2018-12-06T08:33:44.960Z,666.13
2018-12-06T08:36:33.785Z,663.67
2018-12-06T08:39:16.318Z,659.50
2018-12-06T08:41:58.014Z,658.80
2018-12-06T08:45:11.230Z,651.67
2018-12-06T08:47:53.466Z,639.48
2018-12-06T08:50:41.869Z,650.83
2018-12-06T08:53:30.139Z,650.10
2018-12-06T08:55:58.575Z,660.97
2018-12-06T08:58:46.659Z,659.33
2018-12-06T09:01:30.498Z,652.47
2018-12-06T09:04:12.290Z,655.33
2018-12-06T09:07:00.500Z,664.40
2018-12-06T09:10:22.164Z,659.60
2018-12-06T09:13:04.803Z,654.17
2018-12-06T09:15:46.180Z,672.17
2018-12-06T09:18:35.365Z,673.60
2018-12-06T09:24:46.839Z,672.92
2018-12-06T09:27:35.488Z,679.02
2018-12-06T09:30:17.352Z,681.20
2018-12-06T09:33:51.833Z,682.17
2018-12-06T09:36:35.215Z,688.75
2018-12-06T09:42:50.528Z,698.40
2018-12-06T09:45:18.834Z,700.73
2018-12-06T09:55:41.665Z,698.35
2018-12-06T09:58:30.009Z,693.13
2018-12-06T10:01:39.552Z,691.25
2018-12-06T10:04:55.543Z,692.08
2018-12-06T10:07:37.369Z,698.20
2018-12-06T10:10:28.047Z,691.55
2018-12-06T10:12:56.559Z,693.23
2018-12-06T10:15:44.767Z,694.15
2018-12-06T10:21:43.586Z,704.93
2018-12-06T10:24:12.632Z,712.33
2018-12-06T10:26:40.957Z,723.83
2018-12-06T10:29:10.347Z,729.23
2018-12-06T10:31:38.679Z,727.47
2018-12-06T10:34:07.076Z,735.00
2018-12-06T10:36:36.334Z,745.55
2018-12-06T10:39:06.460Z,750.25
2018-12-06T10:41:34.881Z,748.45
2018-12-06T10:44:03.330Z,762.83
2018-12-06T10:46:31.633Z,766.02
2018-12-06T10:48:59.962Z,763.87
2018-12-06T10:51:38.168Z,775.75
2018-12-06T10:54:06.549Z,779.53
2018-12-06T10:56:35.289Z,776.60
2018-12-06T10:59:03.811Z,771.85
2018-12-06T11:01:51.840Z,792.08
2018-12-06T11:04:20.278Z,793.97
2018-12-06T11:06:49.093Z,789.67
2018-12-06T11:09:17.473Z,787.67
2018-12-06T11:11:45.797Z,799.15
2018-12-06T11:14:14.206Z,796.58
2018-12-06T11:16:42.523Z,782.62
2018-12-06T11:19:12.724Z,777.28
2018-12-06T11:21:41.094Z,767.42
2018-12-06T11:24:09.441Z,749.62
2018-12-06T11:26:38.705Z,752.20
2018-12-06T11:29:07.139Z,751.07
2018-12-06T11:31:35.437Z,735.10
2018-12-06T11:34:05.835Z,743.53
2018-12-06T11:36:34.240Z,736.10
2018-12-06T11:39:04.940Z,745.02
2018-12-06T11:41:33.388Z,756.52
2018-12-06T11:44:01.802Z,757.65
2018-12-06T11:46:30.215Z,747.08
2018-12-06T11:48:59.457Z,750.77
2018-12-06T11:51:27.745Z,739.67
2018-12-06T11:53:58.036Z,740.70
2018-12-06T11:56:27.312Z,737.77
2018-12-06T11:58:56.580Z,737.62
2018-12-06T12:01:24.915Z,733.50
2018-12-06T12:03:53.224Z,744.20
2018-12-06T12:06:21.624Z,748.78
2018-12-06T12:08:50.014Z,757.00
2018-12-06T12:11:18.322Z,756.75
2018-12-06T12:13:46.881Z,749.73
2018-12-06T12:16:15.309Z,764.95
2018-12-06T12:18:44.607Z,762.90
2018-12-06T12:21:13.003Z,781.83
2018-12-06T12:23:41.343Z,783.90
2018-12-06T12:26:09.666Z,785.73
2018-12-06T12:28:37.982Z,794.90
2018-12-06T12:31:06.297Z,805.98
2018-12-06T12:33:34.707Z,807.30
2018-12-06T12:36:03.067Z,800.22
2018-12-06T12:38:31.422Z,794.37
2018-12-06T12:41:01.263Z,794.65
2018-12-06T12:43:29.719Z,787.33
2018-12-06T12:45:58.161Z,788.48
2018-12-06T12:48:26.477Z,788.90
2018-12-06T12:50:54.773Z,786.20
2018-12-06T12:53:23.283Z,789.67
2018-12-06T12:55:52.611Z,782.33
2018-12-06T12:58:22.988Z,786.92
2018-12-06T13:00:51.353Z,778.20
2018-12-06T13:03:21.674Z,781.97
2018-12-06T13:05:51.387Z,789.32
2018-12-06T13:08:19.787Z,791.40
2018-12-06T13:10:48.088Z,788.85
2018-12-06T13:13:16.479Z,791.23
2018-12-06T13:15:45.711Z,800.50
2018-12-06T13:21:11.263Z,804.65
2018-12-06T13:23:39.722Z,802.90
2018-12-06T13:26:08.193Z,804.50
2018-12-06T13:28:36.525Z,805.38
2018-12-06T13:31:05.141Z,803.60
2018-12-06T13:33:33.445Z,803.73
2018-12-06T13:36:01.856Z,807.20
2018-12-06T13:38:31.076Z,805.05
2018-12-06T13:40:59.416Z,800.07
2018-12-06T13:43:27.812Z,805.15
2018-12-06T13:45:56.317Z,799.58
2018-12-06T13:48:26.903Z,793.97
2018-12-06T13:50:55.325Z,792.43
2018-12-06T13:53:24.199Z,789.27
2018-12-06T13:55:52.540Z,790.08
2018-12-06T13:58:21.001Z,799.75
2018-12-06T14:00:49.559Z,793.13
2018-12-06T14:03:19.167Z,792.77
2018-12-06T14:05:47.503Z,795.75
2018-12-06T14:08:15.983Z,789.75
2018-12-06T14:10:44.311Z,785.40
2018-12-06T14:13:12.712Z,785.35
2018-12-06T14:15:41.040Z,779.45
2018-12-06T14:18:09.509Z,783.67
2018-12-06T14:20:37.878Z,786.03
2018-12-06T14:23:06.253Z,785.42
2018-12-06T14:25:34.655Z,789.43
2018-12-06T14:28:03.967Z,782.98
2018-12-06T14:30:33.795Z,782.05
2018-12-06T14:33:02.183Z,775.53
2018-12-06T14:35:30.597Z,782.97
2018-12-06T14:37:58.985Z,783.80
2018-12-06T14:40:27.360Z,781.47
2018-12-06T14:42:55.866Z,787.83
2018-12-06T14:45:24.409Z,791.17
2018-12-06T14:47:52.821Z,799.33
2018-12-06T14:50:21.227Z,782.33
2018-12-06T14:52:49.556Z,784.77
2018-12-06T14:55:17.856Z,792.10
2018-12-06T14:57:48.144Z,796.72
2018-12-06T15:00:16.574Z,791.17
2018-12-06T15:02:44.979Z,807.00
2018-12-06T15:05:13.288Z,796.37
2018-12-06T15:07:41.741Z,793.87
2018-12-06T15:10:10.638Z,798.30
2018-12-06T15:12:39.004Z,800.17
2018-12-06T15:15:08.302Z,795.38
2018-12-06T15:17:37.537Z,789.30
2018-12-06T15:20:06.085Z,792.72
2018-12-06T15:22:34.407Z,797.63
2018-12-06T15:25:02.893Z,785.67
2018-12-06T15:27:32.591Z,789.97
2018-12-06T15:30:00.906Z,782.43
2018-12-06T15:32:29.203Z,774.33
2018-12-06T15:34:58.554Z,769.65
2018-12-06T15:37:26.859Z,764.42
2018-12-06T15:39:55.268Z,759.90
2018-12-06T15:42:23.651Z,756.42
2018-12-06T15:44:52.062Z,748.95
2018-12-06T15:47:20.443Z,750.92
2018-12-06T15:49:49.705Z,754.75
2018-12-06T15:52:18.047Z,743.73
2018-12-06T15:54:46.361Z,749.75
2018-12-06T15:57:14.732Z,731.63
2018-12-06T15:59:43.267Z,733.67
2018-12-06T16:02:12.525Z,722.92
2018-12-06T16:04:40.900Z,727.13
2018-12-06T16:07:09.263Z,731.50
2018-12-06T16:09:38.565Z,716.50
2018-12-06T16:12:06.951Z,723.20
2018-12-06T16:14:35.335Z,713.63
2018-12-06T16:17:04.171Z,724.58
2018-12-06T16:19:32.530Z,728.60
2018-12-06T16:22:00.854Z,716.70
2018-12-06T16:24:29.170Z,710.13
2018-12-06T16:26:58.422Z,708.85
2018-12-06T16:32:23.047Z,722.23
2018-12-06T16:34:51.388Z,708.58
2018-12-06T16:37:19.821Z,715.35
2018-12-06T16:39:48.154Z,715.20
2018-12-06T16:42:17.273Z,704.23
2018-12-06T16:44:45.704Z,710.52
2018-12-06T16:47:15.172Z,717.48
2018-12-06T16:49:43.501Z,725.77
2018-12-06T16:52:12.125Z,722.08
2018-12-06T16:54:40.551Z,711.80
2018-12-06T16:57:09.220Z,716.98
2018-12-06T16:59:37.549Z,711.50
2018-12-06T17:02:05.955Z,704.23
2018-12-06T17:04:34.666Z,715.80
2018-12-06T17:07:03.074Z,727.60
2018-12-06T17:09:31.965Z,711.30
2018-12-06T17:12:00.595Z,718.80
2018-12-06T17:14:28.967Z,713.03
2018-12-06T17:16:57.406Z,710.13
2018-12-06T17:19:25.732Z,714.52
2018-12-06T17:21:54.608Z,703.62
2018-12-06T17:24:22.918Z,711.83
2018-12-06T17:26:51.228Z,710.27
2018-12-06T17:29:19.522Z,702.28
2018-12-06T17:31:47.955Z,706.83
2018-12-06T17:34:16.483Z,701.33
2018-12-06T17:36:45.100Z,697.65
2018-12-06T17:39:13.443Z,708.83
2018-12-06T17:41:41.830Z,695.30
2018-12-06T17:44:10.136Z,691.90
2018-12-06T17:46:38.708Z,691.58
2018-12-06T17:49:07.130Z,696.87
2018-12-06T17:51:35.762Z,698.47
2018-12-06T17:54:04.435Z,692.83
2018-12-06T17:56:33.101Z,700.05
2018-12-06T17:59:01.680Z,688.58
2018-12-06T18:01:29.990Z,683.98
2018-12-06T18:03:58.330Z,703.35
2018-12-06T18:06:26.808Z,696.35
2018-12-06T18:08:56.127Z,697.87
2018-12-06T18:11:24.485Z,702.00
2018-12-06T18:13:52.825Z,707.52
2018-12-06T18:16:23.094Z,714.45
2018-12-06T18:18:51.598Z,706.55
2018-12-06T18:21:22.974Z,692.33
2018-12-06T18:23:51.308Z,695.85
2018-12-06T18:26:20.392Z,698.70
2018-12-06T18:28:50.437Z,682.25
2018-12-06T18:31:18.846Z,679.45
2018-12-06T18:33:47.226Z,682.85
2018-12-06T18:36:15.614Z,683.92
2018-12-06T18:38:43.917Z,674.10
2018-12-06T18:41:12.278Z,674.88
2018-12-06T18:43:40.628Z,671.00
2018-12-06T18:46:09.652Z,673.00
2018-12-06T18:48:38.180Z,676.87
2018-12-06T18:51:06.725Z,671.43
2018-12-06T18:53:35.310Z,675.33
2018-12-06T18:56:03.727Z,672.30
2018-12-06T18:58:34.453Z,666.88
2018-12-06T19:01:04.531Z,669.37
2018-12-06T19:03:33.284Z,665.40
2018-12-06T19:06:02.798Z,670.45
2018-12-06T19:08:31.507Z,659.73
2018-12-06T19:11:00.833Z,666.83
2018-12-06T19:13:30.399Z,658.87
2018-12-06T19:15:59.672Z,663.55
2018-12-06T19:18:29.241Z,669.95
2018-12-06T19:20:57.680Z,680.30
2018-12-06T19:23:26.040Z,675.92
2018-12-06T19:25:54.422Z,666.70
2018-12-06T19:28:26.465Z,675.00
2018-12-06T19:30:54.839Z,677.10
2018-12-06T19:33:24.249Z,669.45
2018-12-06T19:35:53.777Z,673.15
2018-12-06T19:38:22.225Z,677.13
2018-12-06T19:40:52.918Z,673.07
2018-12-06T19:46:19.208Z,677.62
2018-12-06T19:48:47.925Z,672.55
2018-12-06T19:51:16.683Z,677.95
2018-12-06T19:53:45.105Z,686.73
2018-12-06T19:56:13.787Z,686.45
2018-12-06T19:58:42.125Z,693.83
2018-12-06T20:01:10.748Z,683.70
2018-12-06T20:03:39.348Z,690.58
2018-12-06T20:06:07.967Z,687.23
2018-12-06T20:08:36.377Z,690.88
2018-12-06T20:11:04.995Z,696.75
2018-12-06T20:13:33.649Z,697.85
2018-12-06T20:16:02.061Z,701.22
2018-12-06T20:18:30.766Z,689.92
2018-12-06T20:20:59.406Z,689.30
2018-12-06T20:23:27.811Z,694.43
2018-12-06T20:25:56.149Z,703.07
2018-12-06T20:28:26.567Z,694.30
2018-12-06T20:30:55.626Z,701.92
2018-12-06T20:33:24.384Z,694.40
2018-12-06T20:35:52.718Z,701.13
2018-12-06T20:38:21.140Z,690.02
2018-12-06T20:40:49.565Z,691.83
2018-12-06T20:43:17.887Z,680.35
2018-12-06T20:45:46.171Z,673.30
2018-12-06T20:48:14.539Z,672.48
2018-12-06T20:50:49.217Z,651.33
2018-12-06T20:53:13.596Z,666.35
2018-12-06T20:55:42.198Z,659.35
2018-12-06T20:58:14.862Z,656.33
2018-12-06T21:00:40.984Z,652.73
2018-12-06T21:03:09.285Z,644.90
2018-12-06T21:05:38.520Z,641.65
2018-12-06T21:08:07.732Z,637.65
2018-12-06T21:10:36.166Z,648.02
2018-12-06T21:13:04.995Z,649.75
2018-12-06T21:15:33.470Z,658.77
2018-12-06T21:18:01.779Z,647.45
2018-12-06T21:20:31.082Z,653.70
2018-12-06T21:22:59.456Z,647.20
2018-12-06T21:25:27.769Z,638.12
2018-12-06T21:27:56.088Z,646.83
2018-12-06T21:30:24.468Z,651.20
2018-12-06T21:32:52.854Z,640.20
2018-12-06T21:35:21.157Z,646.05
2018-12-06T21:37:49.488Z,650.50
2018-12-06T21:40:17.854Z,656.58
2018-12-06T21:42:46.164Z,648.97
2018-12-06T21:45:14.653Z,638.70
2018-12-06T21:47:42.975Z,651.08
2018-12-06T21:50:11.339Z,644.83
2018-12-06T21:52:40.616Z,644.73
2018-12-06T21:55:09.007Z,639.58
2018-12-06T21:57:37.351Z,644.33
2018-12-06T22:00:06.088Z,661.03
2018-12-06T22:02:35.441Z,652.37
2018-12-06T22:05:04.183Z,655.10
2018-12-06T22:07:33.461Z,656.20
2018-12-06T22:10:01.930Z,660.08
2018-12-06T22:12:30.292Z,659.42
2018-12-06T22:14:58.620Z,663.77
2018-12-06T22:17:27.908Z,657.70
2018-12-06T22:19:56.326Z,673.10
2018-12-06T22:22:24.616Z,671.87
2018-12-06T22:24:52.939Z,674.67
2018-12-06T22:27:21.331Z,680.13
2018-12-06T22:32:47.286Z,691.70
2018-12-06T22:35:15.710Z,692.75
2018-12-06T22:37:44.085Z,695.42
2018-12-06T22:40:12.405Z,690.23
2018-12-06T22:42:40.881Z,694.05
2018-12-06T22:45:18.857Z,691.58
2018-12-06T22:47:47.921Z,701.65
2018-12-06T22:50:16.282Z,690.95
2018-12-06T22:52:44.592Z,696.08
2018-12-06T22:55:13.030Z,689.52
2018-12-06T22:57:41.368Z,706.52
2018-12-06T23:00:10.850Z,694.50
2018-12-06T23:02:39.198Z,698.52
2018-12-06T23:05:07.627Z,699.23
2018-12-06T23:07:36.011Z,705.95
2018-12-06T23:10:05.518Z,715.17
2018-12-06T23:12:36.571Z,709.27
2018-12-06T23:17:06.008Z,725.08
2018-12-06T23:19:34.449Z,720.67
2018-12-06T23:22:02.853Z,720.95
2018-12-06T23:24:31.296Z,726.00
2018-12-06T23:26:59.652Z,723.25
2018-12-06T23:29:28.042Z,720.57
2018-12-06T23:31:56.387Z,722.37
2018-12-06T23:34:24.681Z,706.97
2018-12-06T23:36:53.108Z,721.72
2018-12-06T23:39:21.474Z,722.85
2018-12-06T23:41:50.584Z,714.42
2018-12-06T23:44:18.980Z,724.02
2018-12-06T23:46:47.271Z,737.52
2018-12-06T23:49:15.637Z,715.40
2018-12-06T23:51:44.017Z,725.98
2018-12-06T23:54:13.038Z,732.92
2018-12-06T23:56:41.429Z,720.80
2018-12-06T23:59:09.783Z,718.92
